KCNW/CNW METAR and TAF weather

Enter ICAO airport designator
Station Type Date Time Source
KCNW METAR 2018/04/23 03:55 UTC NOAA

KCNW 230355Z 36007KT 10SM SKC 13/08 A3006


Station Type Date Time Source
KCNW Decoded METAR 2018/04/23 03:55 UTC NOAA

Station name not available
Apr 22, 2018 - 11:55 PM EDT / 2018.04.23 0355 UTC
Wind: from the N (360 degrees) at 8 MPH (7 KT):0
Visibility: 10 mile(s):0
Sky conditions: clear
Temperature: 55 F (13 C)
Dew Point: 46 F (8 C)
Relative Humidity: 71%
Pressure (altimeter): 30.06 in. Hg (1017 hPa)
ob: KCNW 230355Z 36007KT 10SM SKC 13/08 A3006
cycle: 4

Station Type Date Time Source
KCNW TAF UTC NOAA

Error!


Example: see airport list